createdAt,value
2024-03-16T06:03:44.282Z,10.12
2024-03-16T06:06:43.433Z,9.94
2024-03-16T06:09:45.120Z,9.79
2024-03-16T06:12:43.704Z,9.72
2024-03-16T06:15:43.762Z,9.68
2024-03-16T06:18:43.555Z,9.68
2024-03-16T06:21:43.729Z,9.67
2024-03-16T06:24:43.907Z,9.64
2024-03-16T06:27:44.005Z,9.63
2024-03-16T06:30:43.697Z,9.66
2024-03-16T06:33:43.794Z,9.60
2024-03-16T06:36:43.613Z,9.66
2024-03-16T06:39:44.353Z,9.68
2024-03-16T06:42:43.559Z,9.67
2024-03-16T06:45:43.583Z,9.68
2024-03-16T06:48:43.493Z,9.65
2024-03-16T06:51:43.755Z,9.65
2024-03-16T06:54:45.994Z,9.68
2024-03-16T06:57:43.895Z,9.70
2024-03-16T07:00:43.818Z,9.69
2024-03-16T07:03:43.704Z,9.70
2024-03-16T07:06:43.402Z,9.74
2024-03-16T07:09:43.888Z,9.77
2024-03-16T07:12:43.871Z,9.81
2024-03-16T07:15:44.789Z,9.76
2024-03-16T07:18:43.476Z,9.71
2024-03-16T07:21:44.309Z,9.66
2024-03-16T07:24:43.512Z,9.59
2024-03-16T07:27:43.865Z,9.57
2024-03-16T07:30:43.454Z,9.51
2024-03-16T07:33:43.527Z,9.50
2024-03-16T07:36:43.611Z,9.51
2024-03-16T07:39:43.666Z,9.48
2024-03-16T07:42:43.671Z,9.47
2024-03-16T07:45:43.576Z,9.39
2024-03-16T07:48:43.512Z,9.38
2024-03-16T07:51:43.614Z,9.16
2024-03-16T07:54:43.629Z,8.81
2024-03-16T07:57:43.928Z,8.74
2024-03-16T08:00:43.564Z,8.72
2024-03-16T08:03:43.788Z,8.65
2024-03-16T08:06:43.636Z,8.59
2024-03-16T08:09:43.732Z,8.47
2024-03-16T08:12:43.651Z,8.44
2024-03-16T08:15:43.791Z,8.44
2024-03-16T08:18:43.627Z,8.42
2024-03-16T08:21:43.721Z,8.34
2024-03-16T08:24:43.662Z,8.29
2024-03-16T08:27:43.845Z,8.25
2024-03-16T08:30:43.668Z,8.29
2024-03-16T08:33:43.901Z,8.36
2024-03-16T08:36:43.588Z,8.37
2024-03-16T08:39:43.636Z,8.38
2024-03-16T08:42:43.570Z,8.32
2024-03-16T08:45:43.845Z,8.38
2024-03-16T08:48:43.575Z,8.29
2024-03-16T08:51:43.709Z,8.08
2024-03-16T08:54:43.640Z,7.76
2024-03-16T08:57:43.854Z,7.44
2024-03-16T09:00:43.617Z,7.41
2024-03-16T09:03:43.781Z,7.29
2024-03-16T09:06:43.477Z,7.12
2024-03-16T09:09:43.747Z,7.31
2024-03-16T09:12:43.527Z,7.19
2024-03-16T09:15:43.877Z,7.27
2024-03-16T09:18:43.698Z,7.20
2024-03-16T09:21:43.684Z,7.29
2024-03-16T09:24:43.486Z,7.34
2024-03-16T09:27:43.545Z,7.49
2024-03-16T09:30:43.490Z,7.47
2024-03-16T09:33:43.904Z,7.56
2024-03-16T09:36:43.460Z,7.68
2024-03-16T09:39:43.684Z,7.72
2024-03-16T09:42:43.532Z,7.71
